createdAt,value
2018-03-21T13:46:19.639Z,29.38
2018-03-21T13:47:19.723Z,29.46
2018-03-21T13:48:19.865Z,29.27
2018-03-21T13:49:20.016Z,29.36
2018-03-21T13:50:20.190Z,29.75
2018-03-21T13:51:20.350Z,28.98
2018-03-21T14:19:22.341Z,17.43
2018-03-21T14:21:16.844Z,19.29
2018-03-21T14:22:17.102Z,20.06
2018-03-21T14:23:17.405Z,20.52
2018-03-21T14:24:17.327Z,21.48
2018-03-21T14:26:02.831Z,20.72
2018-03-21T14:27:02.998Z,20.43
2018-03-21T14:28:47.576Z,21.22
2018-03-21T14:50:48.443Z,24.29
2018-03-21T14:51:46.508Z,23.83
2018-03-21T14:52:50.420Z,23.52
2018-03-21T14:53:48.432Z,22.47
2018-03-21T14:54:47.017Z,22.65
2018-03-21T14:55:47.231Z,23.69
2018-03-21T14:56:47.433Z,24.84
2018-03-21T14:57:47.645Z,25.51
2018-03-21T14:58:47.850Z,24.09
2018-03-21T14:59:51.916Z,23.71
2018-03-21T15:00:48.249Z,23.99
2018-03-21T15:01:48.452Z,22.56
2018-03-21T15:02:48.655Z,22.94
2018-03-21T15:03:48.911Z,22.56
2018-03-21T15:04:49.065Z,22.75
2018-03-21T15:05:49.272Z,22.75
2018-03-21T15:06:49.489Z,23.33
2018-03-21T15:07:49.706Z,23.04
2018-03-21T15:08:49.920Z,23.60
2018-03-21T15:09:50.132Z,24.08
2018-03-21T15:10:50.350Z,24.27
2018-03-21T15:11:50.628Z,24.93
2018-03-21T15:12:50.805Z,25.03
2018-03-21T15:13:50.957Z,24.74
2018-03-21T15:14:51.073Z,25.12
2018-03-21T15:15:51.244Z,25.81
2018-03-21T15:16:53.424Z,24.95
2018-03-21T15:17:53.422Z,25.12
2018-03-21T15:18:51.750Z,24.93
2018-03-21T15:19:51.959Z,24.37
2018-03-21T15:20:53.920Z,25.31
2018-03-21T15:21:52.373Z,25.98
2018-03-21T15:22:52.586Z,26.07
2018-03-21T15:23:52.790Z,26.07
2018-03-21T15:24:54.925Z,26.65
2018-03-21T15:25:53.163Z,27.98
2018-03-21T15:26:54.919Z,27.50
2018-03-21T15:27:53.506Z,27.69
2018-03-21T15:28:53.707Z,28.36
2018-03-21T15:29:53.929Z,28.74
2018-03-21T15:30:55.938Z,28.72
2018-03-21T15:31:57.933Z,28.63
2018-03-21T15:32:54.396Z,28.44
2018-03-21T15:33:54.606Z,28.82
2018-03-21T15:34:56.434Z,28.63
2018-03-21T15:36:02.923Z,29.20
2018-03-21T15:36:55.243Z,28.92
2018-03-21T15:37:55.462Z,28.63
2018-03-21T15:38:57.429Z,29.77
2018-03-21T15:39:55.880Z,30.82
2018-03-21T15:40:57.926Z,29.86
2018-03-21T15:41:56.260Z,29.77
2018-03-21T15:42:58.424Z,29.49
2018-03-21T15:44:00.421Z,29.77
2018-03-21T15:44:56.746Z,29.68
2018-03-21T15:45:56.978Z,30.06
2018-03-21T15:46:57.187Z,29.77
2018-03-21T15:47:58.925Z,29.68
2018-03-21T15:48:57.631Z,30.15
2018-03-21T15:49:57.842Z,29.96
2018-03-21T15:50:58.059Z,30.15
2018-03-21T15:51:58.263Z,31.20
2018-03-21T15:52:58.477Z,30.73
2018-03-21T15:53:58.691Z,31.20
2018-03-21T15:55:00.423Z,30.91
2018-03-21T15:55:59.126Z,30.91
2018-03-21T15:56:59.330Z,31.10
2018-03-21T15:58:03.435Z,30.63
2018-03-21T15:58:59.758Z,31.12
2018-03-21T15:59:59.961Z,30.91
2018-03-21T16:01:00.172Z,30.82
2018-03-21T16:02:00.369Z,31.01
2018-03-21T16:03:04.433Z,30.91
2018-03-21T16:04:00.775Z,30.91
2018-03-21T16:05:00.989Z,31.39
2018-03-21T16:06:01.234Z,31.77
2018-03-21T16:07:01.405Z,31.01
2018-03-21T16:08:01.613Z,31.10
2018-03-21T16:09:01.828Z,31.10
2018-03-21T16:10:02.048Z,31.39
2018-03-21T16:11:02.250Z,31.29
2018-03-21T16:12:07.063Z,30.91
2018-03-21T16:13:04.489Z,30.82
2018-03-21T16:14:02.986Z,30.91
2018-03-21T16:15:03.114Z,31.77
2018-03-21T16:16:03.334Z,31.77
2018-03-21T16:17:03.553Z,30.80
2018-03-21T16:18:03.747Z,30.99
2018-03-21T16:19:03.958Z,31.56
2018-03-21T16:20:04.163Z,32.04
2018-03-21T16:21:04.388Z,32.32
2018-03-21T16:22:04.592Z,32.51
2018-03-21T16:23:06.435Z,32.61
2018-03-21T16:24:05.016Z,32.51
2018-03-21T16:25:06.924Z,32.23
2018-03-21T16:26:05.383Z,32.14
2018-03-21T16:27:05.593Z,32.14
2018-03-21T16:28:05.810Z,31.87
2018-03-21T16:29:06.017Z,32.06
2018-03-21T16:30:06.232Z,31.39
2018-03-21T16:31:08.437Z,30.73
2018-03-21T16:32:06.641Z,31.69
2018-03-21T16:33:06.845Z,31.69
2018-03-21T16:34:07.048Z,29.88
2018-03-21T16:35:07.261Z,29.88
2018-03-21T16:36:07.468Z,30.36
2018-03-21T16:37:07.690Z,30.07
2018-03-21T16:38:10.437Z,30.83
2018-03-21T16:39:09.925Z,30.83
2018-03-21T16:40:08.166Z,30.83
2018-03-21T16:41:08.365Z,30.82
2018-03-21T16:42:08.471Z,31.01
2018-03-21T16:43:08.686Z,31.01
2018-03-21T16:44:08.902Z,31.20
2018-03-21T16:45:09.107Z,31.39
2018-03-21T16:46:10.927Z,31.29
2018-03-21T16:47:09.514Z,30.91
2018-03-21T16:48:09.744Z,30.82
2018-03-21T16:49:11.960Z,31.39
2018-03-21T16:50:11.925Z,32.24
2018-03-21T16:51:10.397Z,33.01
2018-03-21T16:52:10.604Z,32.34
2018-03-21T16:53:10.808Z,32.72
2018-03-21T16:54:11.026Z,33.01
2018-03-21T16:55:11.238Z,33.48
2018-03-21T16:56:11.442Z,33.56
2018-03-21T16:57:11.653Z,33.65
2018-03-21T16:58:11.870Z,33.94
2018-03-21T16:59:12.080Z,33.94
2018-03-21T17:00:12.286Z,34.61
2018-03-21T17:01:12.537Z,34.61
2018-03-21T17:02:12.723Z,34.51
2018-03-21T17:03:14.435Z,34.97
2018-03-21T17:04:13.146Z,35.73
2018-03-21T17:05:14.928Z,35.44
2018-03-21T17:06:17.435Z,35.83
2018-03-21T17:07:13.652Z,36.21
2018-03-21T17:08:13.860Z,36.02
2018-03-21T17:09:14.078Z,36.85
2018-03-21T17:10:14.324Z,37.42
2018-03-21T17:11:14.506Z,37.90
2018-03-21T17:12:14.719Z,37.80
2018-03-21T17:13:18.428Z,37.90
2018-03-21T17:14:15.181Z,38.37
2018-03-21T17:15:16.935Z,38.09
2018-03-21T17:16:15.539Z,38.37
2018-03-21T17:17:15.752Z,39.40
2018-03-21T17:18:15.963Z,39.01
2018-03-21T17:19:16.181Z,39.11
2018-03-21T17:20:17.943Z,39.40
2018-03-21T17:21:18.446Z,39.78
2018-03-21T17:22:16.672Z,39.87
2018-03-21T17:23:16.899Z,39.87
2018-03-21T17:24:18.926Z,40.44
2018-03-21T17:25:17.268Z,40.16
2018-03-21T17:26:17.476Z,40.16
2018-03-21T17:27:17.689Z,40.33
2018-03-21T17:28:19.426Z,40.42
2018-03-21T17:29:18.012Z,40.89
2018-03-21T17:30:18.219Z,40.99
2018-03-21T17:31:18.493Z,41.37
2018-03-21T17:32:18.641Z,41.18
2018-03-21T17:33:18.858Z,41.27
2018-03-21T17:34:19.067Z,41.18
2018-03-21T17:35:19.289Z,41.27
2018-03-21T17:36:19.498Z,41.37
2018-03-21T17:37:19.706Z,41.18
2018-03-21T17:38:19.920Z,41.18
2018-03-21T17:39:22.945Z,41.27
2018-03-21T17:40:20.292Z,41.37
2018-03-21T17:41:20.495Z,40.99
2018-03-21T17:42:20.707Z,40.80
2018-03-21T17:43:20.926Z,40.89
2018-03-21T17:44:21.129Z,40.89
2018-03-21T17:45:21.348Z,40.70
2018-03-21T17:46:21.564Z,40.61
2018-03-21T17:47:21.770Z,40.70
2018-03-21T17:48:21.986Z,40.42
2018-03-21T17:49:22.193Z,42.22
2018-03-21T17:50:22.404Z,44.02
2018-03-21T17:51:22.627Z,45.07
2018-03-21T17:52:22.827Z,46.66
2018-03-21T17:53:23.054Z,46.56
2018-03-21T17:54:26.934Z,46.85
2018-03-21T17:55:23.396Z,46.66
2018-03-21T17:56:23.602Z,47.42
2018-03-21T17:57:23.809Z,47.13
2018-03-21T17:58:28.983Z,47.23
2018-03-21T17:59:24.150Z,47.23
2018-03-21T18:00:25.934Z,47.13
2018-03-21T18:01:32.445Z,47.04
2018-03-21T18:02:24.651Z,47.13
2018-03-21T18:03:24.883Z,47.80
2018-03-21T18:04:26.930Z,48.56
2018-03-21T18:05:25.279Z,49.03
2018-03-21T18:06:27.433Z,49.10
2018-03-21T18:07:25.651Z,48.44
2018-03-21T18:08:25.858Z,48.65
2018-03-21T18:09:26.073Z,48.44
2018-03-21T18:10:26.278Z,48.63
2018-03-21T18:11:26.492Z,48.25
2018-03-21T18:12:28.446Z,48.34
2018-03-21T18:13:34.449Z,48.25
2018-03-21T18:14:27.028Z,47.77
2018-03-21T18:15:27.243Z,47.39
2018-03-21T18:16:27.459Z,46.54
2018-03-21T18:17:27.689Z,46.73
2018-03-21T18:18:27.866Z,46.45
2018-03-21T18:19:29.941Z,45.71
2018-03-21T18:20:28.285Z,45.81
2018-03-21T18:21:30.432Z,45.62
2018-03-21T18:22:28.639Z,46.19
2018-03-21T18:23:28.850Z,46.75
2018-03-21T18:24:29.055Z,46.28
2018-03-21T18:25:29.264Z,46.83
2018-03-21T18:26:29.476Z,46.92
2018-03-21T18:27:29.680Z,47.30
2018-03-21T18:28:29.885Z,47.11
2018-03-21T18:29:30.098Z,47.30
2018-03-21T18:30:30.316Z,47.20
2018-03-21T18:31:32.456Z,47.11
2018-03-21T18:32:32.445Z,47.96
2018-03-21T18:33:30.895Z,48.44
2018-03-21T18:34:32.946Z,49.10
2018-03-21T18:35:31.280Z,49.10
2018-03-21T18:36:31.487Z,49.95
2018-03-21T18:37:31.699Z,50.34
2018-03-21T18:38:33.431Z,50.34
2018-03-21T18:39:32.009Z,50.90
2018-03-21T18:40:33.935Z,51.47
2018-03-21T18:41:35.931Z,52.33
2018-03-21T18:42:34.438Z,52.33
2018-03-21T18:43:34.437Z,52.42
2018-03-21T18:44:32.773Z,52.89
2018-03-21T18:45:32.978Z,53.25
2018-03-21T18:46:33.185Z,53.63
2018-03-21T18:47:33.391Z,53.63
2018-03-21T18:48:33.613Z,54.00
2018-03-21T18:49:33.831Z,54.19
2018-03-21T18:50:34.028Z,54.76
2018-03-21T18:51:34.245Z,54.76
2018-03-21T18:52:34.457Z,55.43
2018-03-21T18:53:34.664Z,55.05
2018-03-21T18:54:34.883Z,55.24
2018-03-21T18:55:35.083Z,55.05
2018-03-21T18:56:35.296Z,55.62
2018-03-21T18:57:35.513Z,55.80
2018-03-21T18:58:35.753Z,56.09
2018-03-21T18:59:35.940Z,55.80
2018-03-21T19:00:36.145Z,55.80
2018-03-21T19:01:36.358Z,56.27
2018-03-21T19:02:38.434Z,56.18
2018-03-21T19:03:36.761Z,56.27
2018-03-21T19:04:36.973Z,56.37
2018-03-21T19:05:37.172Z,56.66
2018-03-21T19:06:37.387Z,56.66
2018-03-21T19:07:37.636Z,56.66
2018-03-21T19:08:37.701Z,56.46
2018-03-21T19:09:37.916Z,56.56
2018-03-21T19:10:38.127Z,57.04
2018-03-21T19:11:38.328Z,57.04
2018-03-21T19:12:45.451Z,57.04
2018-03-21T19:13:40.439Z,57.13
2018-03-21T19:14:41.050Z,57.04
2018-03-21T19:15:40.433Z,57.13
2018-03-21T19:16:39.002Z,57.04
2018-03-21T19:17:39.211Z,57.04
2018-03-21T19:18:39.418Z,57.57
2018-03-21T19:19:41.463Z,57.60
2018-03-21T19:20:39.790Z,57.04
2018-03-21T19:21:40.024Z,57.04
2018-03-21T19:22:40.196Z,56.66
2018-03-21T19:23:40.404Z,57.13
2018-03-21T19:24:40.625Z,57.51
2018-03-21T19:25:40.830Z,57.10
2018-03-21T19:26:41.033Z,57.13
2018-03-21T19:27:41.251Z,57.57
2018-03-21T19:28:43.434Z,58.24
2018-03-21T19:29:45.434Z,58.71
2018-03-21T19:30:41.766Z,59.09
2018-03-21T19:31:41.975Z,59.47
2018-03-21T19:32:42.174Z,59.56
2018-03-21T19:33:45.945Z,59.28
2018-03-21T19:34:42.514Z,59.38
2018-03-21T19:35:42.727Z,59.00
2018-03-21T19:36:44.433Z,59.75
2018-03-21T19:37:43.138Z,59.94
2018-03-21T19:38:43.347Z,59.75
2018-03-21T19:39:43.596Z,59.19
2018-03-21T19:40:43.768Z,59.38
2018-03-21T19:41:43.977Z,59.00
2018-03-21T19:42:44.175Z,58.52
2018-03-21T19:43:44.391Z,59.38
2018-03-21T19:44:44.603Z,59.28
2018-03-21T19:45:44.823Z,59.94
2018-03-21T19:46:45.031Z,59.56
2018-03-21T19:47:48.933Z,60.13
2018-03-21T19:48:45.385Z,59.84
2018-03-21T19:49:47.437Z,59.28
2018-03-21T19:50:45.758Z,60.03
2018-03-21T19:51:46.005Z,59.94
2018-03-21T19:52:46.181Z,59.66
2018-03-21T19:53:46.392Z,59.94
2018-03-21T19:54:46.624Z,59.47
2018-03-21T19:55:46.820Z,59.56
2018-03-21T19:56:47.031Z,59.47
2018-03-21T19:57:47.247Z,59.47
2018-03-21T19:58:47.450Z,59.47
2018-03-21T19:59:47.702Z,59.19
2018-03-21T20:00:47.873Z,59.41
2018-03-21T20:01:50.942Z,59.41
2018-03-21T20:02:48.288Z,59.94
2018-03-21T20:03:48.512Z,59.84
2018-03-21T20:04:48.697Z,59.56
2018-03-21T20:05:48.965Z,59.69
2018-03-21T20:06:49.113Z,59.69
2018-03-21T20:07:49.327Z,59.22
2018-03-21T20:08:49.526Z,59.41
2018-03-21T20:09:49.735Z,59.38
2018-03-21T20:10:49.934Z,60.06
2018-03-21T20:11:50.147Z,59.66
2018-03-21T20:12:50.357Z,60.13
2018-03-21T20:13:50.568Z,60.32
2018-03-21T20:14:52.434Z,60.51
2018-03-21T20:15:50.895Z,60.13
2018-03-21T20:16:51.101Z,60.32
2018-03-21T20:17:51.314Z,59.94
2018-03-21T20:18:51.515Z,60.03
2018-03-21T20:19:53.442Z,60.51
2018-03-21T20:20:51.912Z,60.13
2018-03-21T20:21:52.002Z,60.22
2018-03-21T20:22:52.248Z,60.70
2018-03-21T20:23:52.431Z,60.80
2018-03-21T20:24:54.533Z,60.89
2018-03-21T20:25:54.434Z,61.08
2018-03-21T20:26:54.441Z,61.46
2018-03-21T20:27:53.022Z,61.83
2018-03-21T20:28:53.237Z,62.66
2018-03-21T20:29:53.448Z,62.40
2018-03-21T20:30:55.454Z,62.59
2018-03-21T20:31:53.783Z,62.66
2018-03-21T20:32:55.935Z,62.78
2018-03-21T20:33:54.155Z,62.47
2018-03-21T20:34:54.373Z,62.47
2018-03-21T20:35:54.565Z,62.47
2018-03-21T20:36:56.442Z,62.66
2018-03-21T20:37:54.890Z,62.66
2018-03-21T20:38:55.094Z,63.13
2018-03-21T20:39:55.299Z,63.04
2018-03-21T20:40:55.497Z,62.94
2018-03-21T20:41:55.754Z,63.42
2018-03-21T20:42:55.951Z,62.66
2018-03-21T20:43:57.934Z,62.66
2018-03-21T20:44:56.296Z,63.13
2018-03-21T20:45:56.460Z,63.23
2018-03-21T20:46:56.675Z,63.23
2018-03-21T20:47:56.881Z,63.13
2018-03-21T20:48:57.100Z,63.23
2018-03-21T20:49:58.933Z,63.79
2018-03-21T20:50:57.504Z,63.51
2018-03-21T20:51:59.433Z,64.26
2018-03-21T20:52:59.433Z,64.26
2018-03-21T20:53:58.023Z,64.74
2018-03-21T20:54:58.223Z,64.64
2018-03-21T20:56:00.937Z,64.36
2018-03-21T20:56:58.639Z,64.07
2018-03-21T20:57:58.852Z,64.36
2018-03-21T20:58:59.050Z,64.17
2018-03-21T20:59:59.264Z,64.45
2018-03-21T21:00:59.490Z,64.26
2018-03-21T21:01:59.697Z,64.07
2018-03-21T21:02:59.897Z,63.98
2018-03-21T21:04:01.945Z,63.79
2018-03-21T21:05:00.267Z,64.26
2018-03-21T21:06:00.477Z,64.17
2018-03-21T21:07:00.683Z,64.45
2018-03-21T21:08:00.879Z,64.36
2018-03-21T21:09:03.943Z,63.98
2018-03-21T21:10:04.938Z,65.21
2018-03-21T21:11:02.940Z,65.40
2018-03-21T21:12:01.514Z,66.06
2018-03-21T21:13:03.432Z,66.35
2018-03-21T21:14:04.439Z,66.44
2018-03-21T21:15:04.955Z,66.06
2018-03-21T21:16:02.147Z,66.82
2018-03-21T21:17:02.362Z,67.11
2018-03-21T21:18:02.561Z,66.92
2018-03-21T21:19:02.774Z,66.44
2018-03-21T21:20:02.966Z,66.16
2018-03-21T21:21:03.186Z,66.53
2018-03-21T21:22:03.391Z,66.16
2018-03-21T21:23:03.601Z,66.25
2018-03-21T21:24:03.820Z,65.59
2018-03-21T21:25:04.026Z,65.50
2018-03-21T21:26:05.955Z,66.16
2018-03-21T21:27:04.409Z,65.50
2018-03-21T21:28:04.608Z,65.31
2018-03-21T21:29:04.818Z,65.97
2018-03-21T21:30:05.026Z,66.25
2018-03-21T21:31:05.229Z,66.25
2018-03-21T21:32:05.437Z,66.82
2018-03-21T21:33:05.644Z,67.39
2018-03-21T21:34:05.841Z,67.68
2018-03-21T21:35:06.056Z,67.64
2018-03-21T21:36:06.258Z,67.36
2018-03-21T21:37:06.468Z,67.26
2018-03-21T21:38:10.443Z,67.26
2018-03-21T21:39:06.902Z,68.12
2018-03-21T21:40:07.105Z,68.02
2018-03-21T21:41:07.311Z,68.59
2018-03-21T21:42:07.524Z,68.68
2018-03-21T21:43:07.729Z,68.87
2018-03-21T21:44:07.942Z,68.40
2018-03-21T21:45:08.164Z,68.30
2018-03-21T21:46:08.369Z,69.06
2018-03-21T21:47:15.439Z,68.96
2018-03-21T21:48:08.778Z,69.53
2018-03-21T21:49:08.982Z,69.53
2018-03-21T21:50:09.192Z,69.63
2018-03-21T21:51:09.388Z,69.82
2018-03-21T21:52:09.608Z,70.20
2018-03-21T21:53:21.435Z,70.48
2018-03-21T21:54:09.996Z,70.48
2018-03-21T21:55:10.211Z,70.20
2018-03-21T21:56:11.944Z,70.29
2018-03-21T21:57:10.517Z,70.95
2018-03-21T21:58:10.732Z,71.04
2018-03-21T21:59:10.928Z,70.95
2018-03-21T22:00:11.152Z,70.57
2018-03-21T22:01:11.350Z,70.39
2018-03-21T22:02:11.556Z,70.67
2018-03-21T22:03:11.768Z,70.57
2018-03-21T22:04:11.973Z,71.14
2018-03-21T22:05:12.187Z,70.95
2018-03-21T22:06:12.383Z,71.14
2018-03-21T22:07:12.583Z,71.14
2018-03-21T22:08:12.799Z,71.20
2018-03-21T22:09:14.962Z,71.86
2018-03-21T22:10:13.142Z,71.95
2018-03-21T22:11:14.936Z,72.52
2018-03-21T22:12:13.523Z,72.71
2018-03-21T22:13:13.734Z,72.71
2018-03-21T22:14:15.439Z,72.37
2018-03-21T22:15:16.938Z,72.80
2018-03-21T22:16:14.278Z,73.09
2018-03-21T22:17:16.442Z,72.33
2018-03-21T22:18:16.442Z,72.52
2018-03-21T22:19:16.441Z,72.90
2018-03-21T22:20:14.892Z,72.71
2018-03-21T22:21:15.093Z,72.90
2018-03-21T22:22:15.303Z,72.71
2018-03-21T22:23:15.510Z,72.71
2018-03-21T22:24:15.729Z,72.71
2018-03-21T22:25:15.935Z,72.62
2018-03-21T22:26:16.141Z,72.43
2018-03-21T22:27:16.352Z,72.52
2018-03-21T22:28:16.546Z,72.24
2018-03-21T22:29:16.755Z,72.52
2018-03-21T22:30:16.951Z,72.71
2018-03-21T22:31:17.181Z,72.52
2018-03-21T22:32:18.939Z,72.71
2018-03-21T22:33:17.510Z,72.71
2018-03-21T22:34:17.722Z,72.71
2018-03-21T22:35:17.927Z,72.33
2018-03-21T22:36:18.133Z,72.52
2018-03-21T22:37:18.344Z,72.71
2018-03-21T22:38:18.545Z,72.90
2018-03-21T22:39:20.436Z,72.33
2018-03-21T22:40:18.904Z,72.52
2018-03-21T22:41:26.934Z,72.71
2018-03-21T22:42:21.947Z,72.62
2018-03-21T22:43:19.394Z,72.71
2018-03-21T22:44:19.598Z,72.99
2018-03-21T22:45:19.813Z,72.52
2018-03-21T22:46:20.033Z,72.71
2018-03-21T22:47:20.216Z,73.28
2018-03-21T22:48:20.427Z,73.28
2018-03-21T22:49:20.628Z,73.75
2018-03-21T22:50:20.826Z,73.56
2018-03-21T22:51:21.036Z,73.47
2018-03-21T22:52:22.935Z,73.47
2018-03-21T22:53:21.405Z,73.75
2018-03-21T22:54:21.505Z,73.75
2018-03-21T22:55:21.700Z,73.75
2018-03-21T22:56:21.912Z,74.41
2018-03-21T22:57:22.102Z,74.51
2018-03-21T22:58:23.934Z,74.51
2018-03-21T22:59:22.516Z,74.41
2018-03-21T23:00:22.733Z,74.79
2018-03-21T23:01:22.947Z,74.69
2018-03-21T23:02:25.947Z,74.69
2018-03-21T23:03:23.275Z,74.69
2018-03-21T23:04:23.497Z,74.88
2018-03-21T23:05:23.699Z,74.98
2018-03-21T23:06:23.903Z,75.07
2018-03-21T23:07:24.105Z,74.60
2018-03-21T23:08:24.303Z,74.69
2018-03-21T23:09:24.518Z,74.79
2018-03-21T23:10:24.720Z,75.45
2018-03-21T23:11:24.932Z,75.55
2018-03-21T23:12:25.144Z,75.26
2018-03-21T23:13:25.344Z,74.98
2018-03-21T23:14:25.551Z,74.98
2018-03-21T23:15:25.748Z,75.17
2018-03-21T23:16:25.944Z,75.64
2018-03-21T23:17:26.167Z,75.36
2018-03-21T23:18:26.358Z,75.64
2018-03-21T23:19:26.572Z,76.02
2018-03-21T23:20:30.442Z,76.02
2018-03-21T23:21:26.898Z,75.74
2018-03-21T23:22:27.114Z,75.74
2018-03-21T23:23:27.311Z,75.93
2018-03-21T23:24:27.526Z,75.64
2018-03-21T23:25:27.719Z,75.83
2018-03-21T23:26:29.442Z,75.93
2018-03-21T23:27:28.157Z,75.64
2018-03-21T23:28:28.350Z,75.55
2018-03-21T23:29:32.437Z,75.17
2018-03-21T23:30:28.765Z,75.64
2018-03-21T23:31:28.962Z,75.45
2018-03-21T23:32:29.175Z,75.83
2018-03-21T23:33:30.952Z,74.98
2018-03-21T23:34:31.442Z,74.69
2018-03-21T23:35:29.651Z,74.88
2018-03-21T23:36:29.859Z,74.88
2018-03-21T23:37:30.073Z,75.07
2018-03-21T23:38:30.288Z,74.69
2018-03-21T23:39:32.479Z,75.55
2018-03-21T23:40:30.665Z,75.26
2018-03-21T23:41:32.437Z,75.70
2018-03-21T23:42:31.006Z,76.50
2018-03-21T23:43:31.217Z,76.87
2018-03-21T23:44:31.419Z,76.59
2018-03-21T23:45:31.631Z,76.97
2018-03-21T23:46:31.837Z,76.68
2018-03-21T23:47:33.949Z,76.68
2018-03-21T23:48:32.154Z,76.87
2018-03-21T23:49:32.352Z,76.59
2018-03-21T23:50:34.435Z,76.50
2018-03-21T23:51:32.763Z,76.50
2018-03-21T23:52:32.962Z,76.59
2018-03-21T23:53:36.935Z,76.59
2018-03-21T23:54:33.388Z,76.59
2018-03-21T23:55:33.602Z,77.21
2018-03-21T23:56:33.808Z,77.53
2018-03-21T23:57:34.023Z,77.59
2018-03-21T23:58:34.259Z,77.21
2018-03-21T23:59:34.427Z,77.59
